Time;durP1;ratioP1;P1;durP2;ratioP2;P2;SDS_P1;SDS_P2;PMS_P1;PMS_P2;Temp;Humidity;BMP_temperature;BMP_pressure;BME280_temperature;BME280_humidity;BME280_pressure;Samples;Min_cycle;Max_cycle;Signal;HPM_P1;HPM_P2
2022/05/25 00:00:12;;;;;;;12.45;9.35;;;17.10;99.90;;;;;;5071151;28;20121;-81
2022/05/25 00:02:41;;;;;;;17.08;10.23;;;17.10;99.90;;;;;;5071998;28;20482;-80
2022/05/25 00:05:10;;;;;;;11.38;9.15;;;17.10;99.90;;;;;;5075633;28;20041;-80
2022/05/25 00:07:38;;;;;;;13.90;9.63;;;17.10;99.90;;;;;;5071723;28;20052;-81
2022/05/25 00:10:06;;;;;;;13.48;9.50;;;17.10;99.90;;;;;;5069073;28;20045;-79
2022/05/25 00:12:34;;;;;;;13.65;10.10;;;17.10;99.90;;;;;;5067619;28;20514;-80
2022/05/25 00:15:04;;;;;;;18.63;10.77;;;16.90;99.90;;;;;;5067388;28;20045;-81
2022/05/25 00:17:31;;;;;;;13.50;9.45;;;16.90;99.90;;;;;;5065575;28;20569;-80
2022/05/25 00:20:01;;;;;;;19.88;10.32;;;16.80;99.90;;;;;;5068012;28;20124;-80
2022/05/25 00:22:39;;;;;;;15.07;10.88;;;16.80;99.90;;;;;;5069072;28;20503;-80
2022/05/25 00:25:07;;;;;;;15.02;9.20;;;16.80;99.90;;;;;;5059290;28;20045;-78
2022/05/25 00:27:35;;;;;;;15.77;9.35;;;16.80;99.90;;;;;;5067753;28;20044;-80
2022/05/25 00:30:04;;;;;;;13.02;9.75;;;16.80;99.90;;;;;;5071935;28;20472;-80
2022/05/25 00:32:31;;;;;;;13.55;9.60;;;16.70;99.90;;;;;;5052513;28;20049;-80
2022/05/25 00:34:59;;;;;;;13.75;9.13;;;16.60;99.90;;;;;;5062314;28;20033;-80
2022/05/25 00:37:26;;;;;;;14.05;9.18;;;16.60;99.90;;;;;;5072217;28;20051;-80
2022/05/25 00:39:54;;;;;;;16.38;9.50;;;16.50;99.90;;;;;;5068181;28;20051;-77
2022/05/25 00:42:21;;;;;;;11.95;9.25;;;16.50;99.90;;;;;;5057000;28;20049;-77
2022/05/25 00:44:49;;;;;;;13.95;9.55;;;16.50;99.90;;;;;;5056363;28;20041;-77
2022/05/25 00:47:24;;;;;;;15.98;9.52;;;16.50;99.90;;;;;;5057726;28;20037;-77
2022/05/25 00:49:52;;;;;;;11.60;10.02;;;16.50;99.90;;;;;;5058286;28;20045;-77
2022/05/25 00:52:20;;;;;;;13.45;9.05;;;16.50;99.90;;;;;;5059945;28;20063;-77
2022/05/25 00:54:51;;;;;;;15.88;9.65;;;16.40;99.90;;;;;;5060507;28;20041;-77
2022/05/25 00:57:22;;;;;;;15.05;9.35;;;16.40;99.90;;;;;;5065082;28;20105;-78
2022/05/25 00:59:59;;;;;;;15.63;9.20;;;16.30;99.90;;;;;;5065632;28;20048;-77
2022/05/25 01:02:29;;;;;;;12.57;9.70;;;16.30;99.90;;;;;;5063376;28;20107;-77
2022/05/25 01:04:57;;;;;;;15.50;9.00;;;16.30;99.90;;;;;;5060543;28;20056;-77
2022/05/25 01:07:45;;;;;;;18.25;9.52;;;16.20;99.90;;;;;;5060772;28;20099;-77
2022/05/25 01:10:25;;;;;;;16.13;9.55;;;16.20;99.90;;;;;;5066290;28;20096;-77
2022/05/25 01:13:03;;;;;;;15.02;8.68;;;16.10;99.90;;;;;;5043038;28;20045;-78
2022/05/25 01:15:39;;;;;;;15.57;9.30;;;16.10;99.90;;;;;;5045530;28;20049;-78
2022/05/25 01:18:18;;;;;;;15.07;8.52;;;16.10;99.90;;;;;;5043457;28;20041;-79
2022/05/25 01:20:48;;;;;;;12.27;8.55;;;16.10;99.90;;;;;;5059540;28;20514;-78
2022/05/25 01:23:51;;;;;;;14.95;9.30;;;16.00;99.90;;;;;;5058429;28;20051;-78
2022/05/25 01:26:59;;;;;;;17.80;9.43;;;16.00;99.90;;;;;;5057583;28;20048;-78
2022/05/25 01:30:00;;;;;;;20.88;12.75;;;16.00;99.90;;;;;;5057105;28;20041;-78
2022/05/25 01:32:32;;;;;;;31.60;22.55;;;16.00;99.90;;;;;;5053055;28;20045;-77
2022/05/25 01:35:06;;;;;;;13.70;9.80;;;16.00;99.90;;;;;;5055638;28;20048;-78
2022/05/25 01:37:39;;;;;;;18.35;10.80;;;16.00;99.90;;;;;;5054282;28;20037;-77
2022/05/25 01:40:15;;;;;;;17.23;9.57;;;15.90;99.90;;;;;;5059117;28;20033;-78
2022/05/25 01:42:46;;;;;;;16.45;10.35;;;15.90;99.90;;;;;;5058158;28;20037;-77
2022/05/25 01:45:17;;;;;;;13.35;9.25;;;15.90;99.90;;;;;;5057667;28;20135;-77
2022/05/25 01:47:48;;;;;;;15.73;9.05;;;16.10;99.90;;;;;;5059173;28;20031;-78
2022/05/25 01:50:18;;;;;;;13.93;9.30;;;16.00;99.90;;;;;;5060087;28;20051;-77
2022/05/25 01:52:50;;;;;;;16.48;10.50;;;16.00;99.90;;;;;;5059100;28;20049;-78
2022/05/25 01:55:25;;;;;;;14.82;10.55;;;16.00;99.90;;;;;;5057667;28;20055;-79
2022/05/25 01:58:01;;;;;;;13.52;9.35;;;15.90;99.90;;;;;;5058297;28;20043;-78
2022/05/25 02:00:34;;;;;;;13.05;9.15;;;15.90;99.90;;;;;;5063497;28;20081;-78
2022/05/25 02:06:07;;;;;;;14.60;9.13;;;15.70;99.90;;;;;;5069562;28;20512;-78
2022/05/25 02:08:43;;;;;;;13.00;9.15;;;15.70;99.90;;;;;;5020378;28;20061;-78
2022/05/25 02:11:22;;;;;;;16.05;9.27;;;15.70;99.90;;;;;;5062853;28;20045;-78
2022/05/25 02:14:05;;;;;;;16.25;9.55;;;15.70;99.90;;;;;;5066083;28;20064;-77
2022/05/25 02:16:53;;;;;;;15.23;8.65;;;15.70;99.90;;;;;;5068874;28;20055;-78
2022/05/25 02:19:24;;;;;;;14.30;8.68;;;15.60;99.90;;;;;;5068090;28;20053;-78
2022/05/25 02:21:56;;;;;;;18.73;9.38;;;15.50;99.90;;;;;;5068479;28;20048;-78
2022/05/25 02:24:33;;;;;;;16.50;9.23;;;15.50;99.90;;;;;;5066341;28;20045;-78
2022/05/25 02:27:05;;;;;;;16.42;8.93;;;15.50;99.90;;;;;;5065981;28;20045;-78
2022/05/25 02:29:37;;;;;;;13.82;8.98;;;15.50;99.90;;;;;;5065895;28;20048;-78
2022/05/25 02:32:10;;;;;;;14.82;8.68;;;15.50;99.90;;;;;;5065204;28;20049;-78
2022/05/25 02:34:41;;;;;;;12.98;8.70;;;15.50;99.90;;;;;;5066612;28;20488;-78
2022/05/25 02:37:09;;;;;;;12.93;8.90;;;15.50;99.90;;;;;;5066654;28;20037;-78
2022/05/25 02:39:36;;;;;;;17.25;9.65;;;15.50;99.90;;;;;;5064739;28;20397;-78
2022/05/25 02:42:13;;;;;;;18.98;10.10;;;15.60;99.90;;;;;;5065633;28;20055;-78
2022/05/25 02:44:40;;;;;;;18.50;9.52;;;15.50;99.90;;;;;;5057970;28;20071;-77
2022/05/25 02:47:09;;;;;;;16.65;9.60;;;15.50;99.90;;;;;;5056332;28;20194;-78
2022/05/25 02:49:37;;;;;;;14.35;8.45;;;15.40;99.90;;;;;;5056265;28;20037;-76
2022/05/25 02:52:07;;;;;;;13.80;8.45;;;15.50;99.90;;;;;;5054502;28;20049;-76
2022/05/25 02:54:35;;;;;;;17.33;8.55;;;15.40;99.90;;;;;;5053712;28;20064;-76
2022/05/25 02:57:03;;;;;;;14.85;8.65;;;15.30;99.90;;;;;;5053249;28;20041;-77
2022/05/25 02:59:30;;;;;;;15.50;8.95;;;15.20;99.90;;;;;;5056289;28;20374;-77
2022/05/25 03:01:58;;;;;;;16.60;9.02;;;15.30;99.90;;;;;;5054981;28;20047;-77
2022/05/25 03:04:27;;;;;;;12.93;9.45;;;15.30;99.90;;;;;;5054617;28;20037;-77
2022/05/25 03:06:54;;;;;;;16.05;9.18;;;15.30;99.90;;;;;;5049698;28;20512;-78
2022/05/25 03:09:21;;;;;;;15.10;8.68;;;15.30;99.90;;;;;;5037543;28;20044;-78
2022/05/25 03:11:49;;;;;;;17.25;9.73;;;15.30;99.90;;;;;;5053279;28;20037;-78
2022/05/25 03:14:16;;;;;;;11.90;7.82;;;15.30;99.90;;;;;;5054228;28;20436;-78
2022/05/25 03:16:43;;;;;;;14.43;8.48;;;15.20;99.90;;;;;;5058578;28;20075;-78
2022/05/25 03:19:11;;;;;;;17.00;8.70;;;15.20;99.90;;;;;;5058819;28;20104;-77
2022/05/25 03:21:40;;;;;;;16.75;9.18;;;15.30;99.90;;;;;;5060934;28;20408;-78
2022/05/25 03:24:10;;;;;;;18.60;9.23;;;15.30;99.90;;;;;;5058144;28;20041;-78
2022/05/25 03:26:37;;;;;;;18.30;8.85;;;15.40;99.90;;;;;;5060066;28;20052;-78
2022/05/25 03:29:05;;;;;;;16.00;8.90;;;15.40;99.90;;;;;;5060361;28;20037;-78
2022/05/25 03:31:32;;;;;;;15.70;8.60;;;15.40;99.90;;;;;;5060533;28;20045;-78
2022/05/25 03:33:59;;;;;;;21.85;12.68;;;15.40;99.90;;;;;;5059884;28;20052;-78
2022/05/25 03:36:28;;;;;;;37.33;31.70;;;15.50;99.90;;;;;;5060274;28;20045;-78
2022/05/25 03:38:56;;;;;;;38.40;28.67;;;15.50;99.90;;;;;;5059043;28;20075;-76
2022/05/25 03:41:24;;;;;;;29.45;24.50;;;15.50;99.90;;;;;;5035929;28;20049;-77
2022/05/25 03:43:52;;;;;;;25.08;15.45;;;15.60;99.90;;;;;;5043473;28;20405;-77
2022/05/25 03:46:19;;;;;;;17.95;12.18;;;15.70;99.90;;;;;;5045982;28;20037;-77
2022/05/25 03:48:46;;;;;;;17.50;9.05;;;15.80;99.90;;;;;;5056130;28;20439;-78
2022/05/25 03:51:14;;;;;;;15.25;8.75;;;15.90;99.90;;;;;;5058150;28;20119;-78
2022/05/25 03:53:42;;;;;;;15.90;8.13;;;16.20;99.90;;;;;;5060454;28;20412;-78
2022/05/25 03:56:11;;;;;;;14.45;6.53;;;16.50;99.90;;;;;;5060681;28;20481;-78
2022/05/25 03:58:38;;;;;;;13.55;7.80;;;16.90;99.90;;;;;;5061083;28;20044;-78
2022/05/25 04:01:06;;;;;;;15.45;7.22;;;17.20;99.90;;;;;;5063911;28;20037;-78
2022/05/25 04:03:33;;;;;;;13.43;6.95;;;17.50;99.90;;;;;;5063729;28;20053;-78
2022/05/25 04:06:00;;;;;;;11.55;7.35;;;17.80;99.90;;;;;;5065627;28;20033;-78
2022/05/25 04:08:28;;;;;;;14.90;6.97;;;18.10;99.90;;;;;;5064166;28;20431;-78
2022/05/25 04:10:55;;;;;;;14.18;7.40;;;18.30;99.90;;;;;;5061169;28;20052;-78
2022/05/25 04:13:25;;;;;;;16.88;7.65;;;18.90;99.90;;;;;;5060413;28;20045;-77
2022/05/25 04:15:53;;;;;;;18.77;7.20;;;19.30;99.90;;;;;;5059441;28;20124;-78
2022/05/25 04:18:20;;;;;;;15.20;7.40;;;19.70;99.90;;;;;;5061014;28;20064;-78
2022/05/25 04:20:47;;;;;;;16.25;6.72;;;19.70;99.90;;;;;;5059840;28;20447;-78
2022/05/25 04:23:15;;;;;;;17.08;6.97;;;19.70;99.90;;;;;;5061959;28;20427;-78
2022/05/25 04:25:43;;;;;;;19.40;8.23;;;20.00;99.90;;;;;;5062773;28;20045;-78
2022/05/25 04:28:10;;;;;;;14.75;6.63;;;20.70;99.90;;;;;;5061754;28;20052;-78
2022/05/25 04:30:39;;;;;;;11.65;6.38;;;20.90;99.90;;;;;;5062308;28;20049;-78
2022/05/25 04:33:07;;;;;;;15.05;7.25;;;21.40;99.90;;;;;;5061571;28;20076;-78
2022/05/25 04:35:34;;;;;;;14.45;6.40;;;22.00;99.90;;;;;;5063108;28;20052;-78
2022/05/25 04:38:02;;;;;;;15.75;6.97;;;22.60;99.90;;;;;;5063220;28;20481;-78
2022/05/25 04:40:31;;;;;;;12.27;6.00;;;22.80;99.90;;;;;;5062670;28;20159;-78
2022/05/25 04:43:00;;;;;;;14.13;6.78;;;22.30;99.90;;;;;;5055980;28;20044;-78
2022/05/25 04:45:29;;;;;;;16.23;6.50;;;22.40;99.90;;;;;;5062184;28;20044;-78
2022/05/25 04:48:00;;;;;;;17.27;7.75;;;21.90;99.90;;;;;;5063226;28;20037;-78
2022/05/25 04:50:31;;;;;;;16.73;7.35;;;21.70;99.90;;;;;;5061772;28;20063;-78
2022/05/25 04:52:59;;;;;;;11.98;6.32;;;21.70;99.90;;;;;;5058858;28;20416;-77
2022/05/25 04:58:19;;;;;;;15.35;6.72;;;22.10;99.90;;;;;;5058047;28;20317;-78
2022/05/25 05:00:47;;;;;;;12.88;6.82;;;22.40;99.90;;;;;;5060080;28;20051;-78
2022/05/25 05:03:17;;;;;;;20.35;8.25;;;22.40;99.90;;;;;;5063885;28;20049;-79
2022/05/25 05:05:45;;;;;;;10.93;6.75;;;22.70;99.90;;;;;;5067979;28;20040;-78
2022/05/25 05:08:13;;;;;;;12.27;6.90;;;22.50;99.90;;;;;;5056645;28;20056;-79
2022/05/25 05:10:41;;;;;;;14.55;7.07;;;22.80;99.90;;;;;;5057932;28;20119;-79
2022/05/25 05:13:09;;;;;;;13.85;7.05;;;23.30;99.90;;;;;;5059812;28;20052;-79
2022/05/25 05:15:39;;;;;;;16.05;6.63;;;23.70;99.90;;;;;;5061213;28;20044;-79
2022/05/25 05:18:07;;;;;;;21.00;8.45;;;24.00;99.90;;;;;;5065223;28;20067;-77
2022/05/25 05:20:59;;;;;;;16.80;7.68;;;24.40;99.90;;;;;;5060928;28;20412;-78
2022/05/25 05:23:26;;;;;;;28.40;8.57;;;24.50;99.90;;;;;;5055974;28;20064;-77
2022/05/25 05:25:54;;;;;;;13.05;6.07;;;25.00;99.90;;;;;;5055957;28;20045;-77
2022/05/25 05:28:25;;;;;;;13.63;6.25;;;25.40;99.90;;;;;;5055676;28;20041;-78
2022/05/25 05:30:55;;;;;;;13.52;6.28;;;25.50;99.90;;;;;;5054817;28;20044;-78
2022/05/25 05:33:23;;;;;;;17.83;7.45;;;25.90;99.90;;;;;;5051261;28;20048;-78
2022/05/25 05:35:54;;;;;;;16.10;7.15;;;25.70;99.90;;;;;;5056065;28;20049;-78
2022/05/25 05:38:23;;;;;;;18.40;8.02;;;25.70;99.90;;;;;;5056089;28;20048;-78
2022/05/25 05:40:52;;;;;;;13.73;7.68;;;25.40;99.90;;;;;;5055741;28;20049;-78
2022/05/25 05:43:20;;;;;;;14.38;6.63;;;25.40;99.90;;;;;;5055532;28;20037;-77
2022/05/25 05:45:47;;;;;;;13.60;6.47;;;25.60;99.90;;;;;;5055451;28;20061;-78
2022/05/25 05:48:19;;;;;;;22.83;8.93;;;25.70;99.90;;;;;;5054300;28;20075;-78
2022/05/25 05:50:49;;;;;;;15.57;7.80;;;25.50;99.90;;;;;;5055550;28;20559;-77
2022/05/25 05:53:18;;;;;;;15.68;6.70;;;25.50;99.90;;;;;;5055498;28;20045;-78
2022/05/25 05:55:47;;;;;;;21.13;7.55;;;25.50;99.90;;;;;;5060752;28;20040;-78
2022/05/25 05:58:15;;;;;;;15.65;8.35;;;25.30;99.90;;;;;;5055357;28;20068;-77
2022/05/25 06:00:43;;;;;;;20.45;7.60;;;25.10;99.90;;;;;;5055250;28;20044;-77
2022/05/25 06:03:10;;;;;;;17.42;10.98;;;25.10;99.90;;;;;;5052776;28;20056;-76
2022/05/25 06:05:38;;;;;;;16.52;7.32;;;25.40;99.90;;;;;;5054538;28;20057;-78
2022/05/25 06:08:11;;;;;;;20.60;7.20;;;25.30;99.90;;;;;;5054634;28;20052;-77
2022/05/25 06:10:39;;;;;;;22.85;7.63;;;25.60;99.90;;;;;;5054115;28;20053;-77
2022/05/25 06:13:08;;;;;;;20.63;8.23;;;25.80;99.90;;;;;;5054136;28;20118;-75
2022/05/25 06:21:05;;;;;;;17.48;7.40;;;26.10;99.90;;;;;;5053761;28;20044;-77
2022/05/25 06:23:33;;;;;;;22.55;9.15;;;26.40;99.90;;;;;;5053883;28;20052;-77
2022/05/25 06:26:00;;;;;;;20.13;8.02;;;26.50;99.90;;;;;;5054398;28;20381;-77
2022/05/25 06:28:29;;;;;;;15.32;7.30;;;26.60;99.90;;;;;;5055069;28;20110;-77
2022/05/25 06:30:56;;;;;;;12.98;7.03;;;26.90;99.90;;;;;;5054324;28;20052;-78
2022/05/25 06:33:23;;;;;;;15.63;6.45;;;27.20;99.90;;;;;;5053063;28;20050;-78
2022/05/25 06:35:51;;;;;;;16.67;6.80;;;27.30;99.90;;;;;;5054650;28;20052;-78
2022/05/25 06:38:18;;;;;;;25.88;8.88;;;27.20;99.90;;;;;;5055253;28;20053;-78
2022/05/25 06:40:46;;;;;;;14.23;5.82;;;27.00;99.90;;;;;;5054102;28;20072;-78
2022/05/25 06:43:13;;;;;;;14.27;5.80;;;26.60;99.90;;;;;;5054043;28;20110;-78
2022/05/25 06:45:42;;;;;;;16.92;6.28;;;26.40;99.90;;;;;;5052527;28;20079;-76
2022/05/25 06:48:12;;;;;;;17.27;6.30;;;26.40;99.90;;;;;;5054127;28;20037;-78
2022/05/25 06:50:39;;;;;;;14.48;7.38;;;26.60;99.90;;;;;;5054834;28;20399;-77
2022/05/25 06:53:07;;;;;;;13.23;6.75;;;26.90;99.90;;;;;;5054577;28;20413;-77
2022/05/25 06:55:34;;;;;;;13.95;6.10;;;27.20;99.90;;;;;;5055018;28;20051;-77
2022/05/25 06:58:01;;;;;;;12.30;5.90;;;27.30;99.90;;;;;;5054222;28;20053;-77
2022/05/25 07:00:29;;;;;;;13.45;5.70;;;27.00;99.90;;;;;;5053656;28;20496;-77
2022/05/25 07:02:59;;;;;;;15.82;5.70;;;27.00;99.90;;;;;;5053081;28;20084;-77
2022/05/25 07:05:27;;;;;;;14.55;6.05;;;27.20;99.90;;;;;;5053839;28;20539;-77
2022/05/25 07:07:54;;;;;;;13.95;5.75;;;27.50;99.90;;;;;;5052690;28;20065;-77
2022/05/25 07:10:22;;;;;;;22.63;6.65;;;27.70;99.90;;;;;;5053637;28;20431;-77
2022/05/25 07:12:50;;;;;;;18.23;6.25;;;27.70;99.90;;;;;;5053541;28;20041;-77
2022/05/25 07:15:17;;;;;;;15.68;6.43;;;27.60;99.90;;;;;;5053047;28;20041;-77
2022/05/25 07:17:47;;;;;;;14.88;6.75;;;27.40;99.90;;;;;;5053406;28;20049;-76
2022/05/25 07:20:16;;;;;;;19.58;12.02;;;27.50;99.90;;;;;;5053687;28;20055;-77
2022/05/25 07:22:44;;;;;;;21.65;8.95;;;27.60;99.90;;;;;;5052761;28;20060;-77
2022/05/25 07:25:11;;;;;;;25.10;10.52;;;28.00;99.90;;;;;;5053812;28;20044;-78
2022/05/25 07:27:39;;;;;;;21.45;6.65;;;28.40;99.90;;;;;;5053959;28;20043;-78
2022/05/25 07:30:08;;;;;;;17.02;7.25;;;28.70;99.90;;;;;;5054326;28;20147;-78
2022/05/25 07:32:36;;;;;;;11.45;5.82;;;28.70;99.90;;;;;;5053970;28;20119;-78
2022/05/25 07:35:05;;;;;;;10.13;5.55;;;28.70;99.90;;;;;;5053968;28;20053;-78
2022/05/25 07:37:38;;;;;;;16.23;5.88;;;28.70;99.90;;;;;;5054256;28;20412;-78
2022/05/25 07:40:09;;;;;;;17.60;7.90;;;28.70;99.90;;;;;;5054347;28;20446;-78
2022/05/25 07:42:38;;;;;;;10.25;4.93;;;28.80;99.90;;;;;;5052567;28;20078;-78
2022/05/25 07:45:07;;;;;;;13.98;4.80;;;28.90;99.90;;;;;;5054196;28;20043;-77
2022/05/25 07:47:35;;;;;;;14.80;4.88;;;29.10;99.90;;;;;;5052981;28;20049;-77
2022/05/25 07:50:03;;;;;;;13.90;5.25;;;29.50;99.90;;;;;;5053309;28;20037;-77
2022/05/25 07:52:35;;;;;;;16.13;5.70;;;29.70;99.90;;;;;;5051812;28;20045;-77
2022/05/25 07:55:04;;;;;;;12.18;4.47;;;29.50;99.90;;;;;;5053711;28;20045;-79
2022/05/25 07:57:31;;;;;;;14.02;5.18;;;29.30;99.90;;;;;;5054390;28;20040;-78
2022/05/25 07:59:59;;;;;;;18.73;6.28;;;29.10;99.90;;;;;;5053639;28;20045;-77
2022/05/25 08:08:03;;;;;;;14.52;5.80;;;29.70;99.90;;;;;;5053430;28;20048;-78
2022/05/25 08:10:31;;;;;;;16.80;5.78;;;30.10;99.90;;;;;;5054963;28;20041;-78
2022/05/25 08:13:00;;;;;;;15.70;5.63;;;30.20;99.90;;;;;;5052599;28;20048;-78
2022/05/25 08:15:31;;;;;;;11.88;5.07;;;30.20;99.90;;;;;;5054408;28;20493;-78
2022/05/25 08:17:59;;;;;;;13.35;5.60;;;30.00;99.90;;;;;;5053189;28;20040;-79
2022/05/25 08:20:29;;;;;;;10.68;5.93;;;29.80;99.90;;;;;;5052874;28;20508;-78
2022/05/25 08:22:57;;;;;;;14.90;5.28;;;29.70;99.90;;;;;;5053302;28;20115;-79
2022/05/25 08:25:26;;;;;;;12.98;5.88;;;29.70;99.90;;;;;;5053612;28;20068;-77
2022/05/25 08:27:54;;;;;;;14.25;5.80;;;29.60;99.90;;;;;;5053120;28;20075;-78
2022/05/25 08:30:22;;;;;;;13.95;5.15;;;29.70;99.90;;;;;;5055047;28;20037;-82
2022/05/25 08:32:49;;;;;;;18.25;6.45;;;29.50;99.90;;;;;;5060156;28;20526;-83
2022/05/25 08:35:18;;;;;;;17.20;6.60;;;29.50;99.90;;;;;;5060345;28;20044;-83
2022/05/25 08:37:45;;;;;;;19.40;7.47;;;29.50;99.90;;;;;;5060280;28;20048;-82
2022/05/25 08:40:17;;;;;;;19.60;6.53;;;29.50;99.90;;;;;;5059608;28;20045;-84
2022/05/25 08:42:54;;;;;;;15.90;6.53;;;29.70;99.90;;;;;;5057803;28;20049;-79
2022/05/25 08:45:24;;;;;;;18.10;6.60;;;29.70;99.90;;;;;;5056734;28;20037;-83
2022/05/25 08:47:56;;;;;;;21.05;6.70;;;29.80;99.90;;;;;;5059614;28;20041;-78
2022/05/25 08:50:25;;;;;;;16.33;6.45;;;30.00;99.90;;;;;;5057915;28;20037;-79
2022/05/25 08:52:56;;;;;;;27.90;7.20;;;30.20;99.90;;;;;;5056739;28;20538;-79
2022/05/25 08:55:37;;;;;;;16.85;7.20;;;30.50;99.90;;;;;;5058011;28;20119;-79
2022/05/25 08:58:09;;;;;;;15.95;6.25;;;30.60;99.90;;;;;;5057549;28;20079;-77
2022/05/25 09:00:36;;;;;;;18.35;7.50;;;30.70;99.90;;;;;;5055885;28;20049;-77
2022/05/25 09:03:16;;;;;;;21.52;6.80;;;30.80;99.90;;;;;;5056218;28;20064;-82
2022/05/25 09:05:47;;;;;;;16.08;8.98;;;30.80;99.90;;;;;;5057050;28;20395;-78
2022/05/25 09:08:24;;;;;;;15.32;7.63;;;30.60;99.90;;;;;;5057354;28;20489;-78
2022/05/25 09:11:02;;;;;;;14.43;7.90;;;30.60;99.90;;;;;;5059309;28;20037;-78
2022/05/25 09:13:38;;;;;;;19.00;7.15;;;30.30;99.90;;;;;;5056620;28;20140;-78
2022/05/25 09:16:19;;;;;;;17.23;6.47;;;30.00;99.90;;;;;;5057460;28;20131;-79
2022/05/25 09:18:55;;;;;;;17.83;6.82;;;30.10;99.90;;;;;;5057170;28;20064;-79
2022/05/25 09:21:27;;;;;;;18.80;6.25;;;30.40;99.90;;;;;;5058133;28;20045;-80
2022/05/25 09:24:01;;;;;;;17.83;6.60;;;30.80;99.90;;;;;;5057817;28;20510;-83
2022/05/25 09:26:31;;;;;;;18.30;6.03;;;30.70;99.90;;;;;;5065935;28;20045;-82
2022/05/25 09:29:06;;;;;;;15.85;6.63;;;30.90;99.90;;;;;;5064766;28;20087;-84
2022/05/25 09:31:40;;;;;;;17.52;7.20;;;30.90;99.90;;;;;;5066108;28;20053;-82
2022/05/25 09:34:13;;;;;;;20.85;6.85;;;31.20;99.90;;;;;;5058583;28;20045;-79
2022/05/25 09:36:46;;;;;;;16.75;6.80;;;31.20;99.90;;;;;;5056794;28;20044;-79
2022/05/25 09:39:20;;;;;;;16.17;6.72;;;31.00;99.90;;;;;;5057002;28;20397;-79
2022/05/25 09:41:54;;;;;;;15.57;6.15;;;31.10;99.90;;;;;;5056161;28;20040;-79
2022/05/25 09:44:25;;;;;;;21.38;7.93;;;31.50;99.90;;;;;;5061305;28;20549;-80
2022/05/25 09:46:58;;;;;;;18.00;7.43;;;31.70;99.90;;;;;;5059762;28;20049;-78
2022/05/25 09:49:39;;;;;;;16.60;7.50;;;31.70;99.90;;;;;;5060046;28;20065;-78
2022/05/25 09:52:13;;;;;;;18.67;7.82;;;31.80;99.90;;;;;;5062219;28;20061;-78
2022/05/25 09:54:46;;;;;;;17.20;6.53;;;32.10;99.90;;;;;;5059731;28;20067;-79
2022/05/25 09:57:24;;;;;;;16.52;7.30;;;32.30;99.90;;;;;;5062144;28;20049;-77
2022/05/25 10:00:00;;;;;;;14.63;7.03;;;32.10;99.90;;;;;;5063322;28;20060;-78
2022/05/25 10:02:34;;;;;;;18.73;7.93;;;32.10;99.90;;;;;;5062831;28;20049;-79
2022/05/25 10:05:13;;;;;;;17.80;6.53;;;32.30;99.90;;;;;;5063079;28;20048;-78
2022/05/25 10:07:50;;;;;;;20.38;6.88;;;32.50;99.90;;;;;;5063127;28;20519;-78
2022/05/25 10:10:27;;;;;;;12.80;6.00;;;32.30;99.90;;;;;;5059742;28;20057;-78
2022/05/25 10:13:05;;;;;;;14.15;6.30;;;32.20;99.90;;;;;;5059388;28;20049;-77
2022/05/25 10:15:36;;;;;;;19.65;7.28;;;32.00;99.90;;;;;;5059968;28;20044;-79
2022/05/25 10:18:04;;;;;;;15.57;6.88;;;31.90;99.90;;;;;;5059616;28;20045;-78
2022/05/25 10:20:44;;;;;;;21.10;7.53;;;31.80;99.90;;;;;;5060382;28;20118;-78
2022/05/25 10:23:20;;;;;;;19.10;8.60;;;31.80;99.90;;;;;;5064260;28;20068;-79
2022/05/25 10:25:51;;;;;;;17.40;6.63;;;31.80;99.90;;;;;;5062130;28;20045;-78
2022/05/25 10:28:24;;;;;;;15.45;6.43;;;31.90;99.90;;;;;;5062129;28;20052;-78
2022/05/25 10:36:52;;;;;;;17.52;8.52;;;32.10;99.90;;;;;;5054874;28;20095;-78
2022/05/25 10:39:24;;;;;;;19.33;7.20;;;32.10;99.90;;;;;;5053292;28;20053;-78
2022/05/25 10:42:04;;;;;;;13.25;5.32;;;32.20;99.90;;;;;;5054331;28;20078;-78
2022/05/25 10:44:39;;;;;;;13.00;5.65;;;32.00;99.90;;;;;;5054954;28;20067;-78
2022/05/25 10:47:21;;;;;;;18.88;6.45;;;31.90;99.90;;;;;;5053764;28;20045;-78
2022/05/25 10:49:49;;;;;;;18.13;9.57;;;31.70;99.90;;;;;;5053482;28;20507;-78
2022/05/25 10:52:25;;;;;;;20.80;9.38;;;31.50;99.90;;;;;;5053751;28;20048;-78
2022/05/25 10:54:53;;;;;;;20.70;6.63;;;31.50;99.90;;;;;;5054703;28;20485;-77
2022/05/25 10:57:41;;;;;;;17.40;6.70;;;31.70;99.90;;;;;;5054407;28;20144;-78
2022/05/25 11:00:12;;;;;;;21.10;5.50;;;31.30;99.90;;;;;;5054311;28;20455;-78
2022/05/25 11:03:24;;;;;;;17.30;6.40;;;31.30;99.90;;;;;;5070929;22;20064;-77
2022/05/25 11:05:58;;;;;;;17.98;6.72;;;31.30;99.90;;;;;;5016974;28;20049;-76
2022/05/25 11:08:40;;;;;;;15.13;5.53;;;31.60;99.90;;;;;;5014991;28;20049;-77
2022/05/25 11:11:19;;;;;;;23.13;7.50;;;31.70;99.90;;;;;;5014288;28;20041;-76
2022/05/25 11:14:07;;;;;;;15.23;6.32;;;31.80;99.90;;;;;;4996391;28;20445;-76
2022/05/25 11:16:43;;;;;;;16.13;5.78;;;31.80;99.90;;;;;;4995213;28;20054;-76
2022/05/25 11:19:32;;;;;;;16.38;6.45;;;31.70;99.90;;;;;;4994945;28;20142;-75
2022/05/25 11:22:13;;;;;;;15.43;6.50;;;31.70;99.90;;;;;;5009091;28;20069;-75
2022/05/25 11:24:54;;;;;;;16.73;6.63;;;31.80;99.90;;;;;;5012768;28;20049;-76
2022/05/25 11:27:36;;;;;;;19.73;6.47;;;31.90;99.90;;;;;;5014684;28;20456;-77
2022/05/25 11:30:13;;;;;;;17.75;6.07;;;31.70;99.90;;;;;;5013065;28;20133;-76
2022/05/25 11:32:59;;;;;;;14.35;5.55;;;31.50;99.90;;;;;;5012964;28;20076;-76
2022/05/25 11:35:35;;;;;;;;;;;31.40;99.90;;;;;;5013657;28;20052;-77
2022/05/25 11:38:19;;;;;;;21.85;7.13;;;31.40;99.90;;;;;;5013678;28;19979;-77
2022/05/25 11:40:57;;;;;;;14.68;6.07;;;31.30;99.90;;;;;;5014102;28;20046;-76
2022/05/25 11:43:55;;;;;;;14.65;5.90;;;31.40;99.90;;;;;;5014587;28;20096;-76
2022/05/25 11:46:32;;;;;;;16.75;5.80;;;31.60;99.90;;;;;;5013921;28;20560;-76
2022/05/25 11:49:34;;;;;;;16.50;5.70;;;31.70;99.90;;;;;;5014328;28;20042;-76
2022/05/25 11:52:16;;;;;;;18.42;5.93;;;31.90;99.90;;;;;;4982236;28;20058;-77
2022/05/25 11:55:02;;;;;;;27.58;6.90;;;32.00;99.90;;;;;;5012666;28;20053;-77
2022/05/25 11:57:36;;;;;;;18.02;6.57;;;32.10;99.90;;;;;;5014287;28;20455;-77
2022/05/25 12:00:11;;;;;;;16.65;5.88;;;32.20;99.90;;;;;;5014623;28;20121;-78
2022/05/25 12:03:05;;;;;;;18.52;6.38;;;32.30;99.90;;;;;;5014571;28;20065;-77
2022/05/25 12:05:48;;;;;;;15.30;7.28;;;32.10;99.90;;;;;;5016590;28;20053;-78
2022/05/25 12:08:33;;;;;;;20.02;5.70;;;32.20;99.90;;;;;;5016194;28;20126;-78
2022/05/25 12:11:10;;;;;;;22.50;11.75;;;32.20;99.90;;;;;;5017001;28;20481;-76
2022/05/25 12:13:45;;;;;;;14.40;5.50;;;32.20;99.90;;;;;;5015760;28;20042;-78
2022/05/25 12:16:18;;;;;;;14.95;6.38;;;31.80;99.90;;;;;;5013859;28;20116;-77
2022/05/25 12:18:54;;;;;;;16.88;6.13;;;32.10;99.90;;;;;;5014592;28;20053;-78
2022/05/25 12:21:22;;;;;;;;;;;32.10;99.90;;;;;;5018408;28;20418;-77
2022/05/25 12:23:56;;;;;;;14.65;5.95;;;32.20;99.90;;;;;;5016527;28;20385;-78
2022/05/25 12:26:27;;;;;;;13.27;5.68;;;32.00;99.90;;;;;;5018033;28;20066;-77
2022/05/25 12:29:21;;;;;;;19.75;6.20;;;32.00;99.90;;;;;;5017401;28;20133;-77
2022/05/25 12:31:53;;;;;;;14.07;5.50;;;32.10;99.90;;;;;;5021703;28;20096;-76
2022/05/25 12:34:28;;;;;;;22.05;6.63;;;32.20;99.90;;;;;;5017252;28;20076;-76
2022/05/25 12:36:57;;;;;;;15.50;6.55;;;32.20;99.90;;;;;;5016086;28;20055;-76
2022/05/25 12:40:01;;;;;;;16.98;6.80;;;32.20;99.90;;;;;;5016406;28;20054;-78
2022/05/25 12:42:39;;;;;;;16.45;6.38;;;32.30;99.90;;;;;;5017321;28;20503;-77
2022/05/25 12:50:50;;;;;;;20.58;6.82;;;31.90;99.90;;;;;;5019222;28;20112;-77
2022/05/25 12:53:21;;;;;;;18.20;6.30;;;31.90;99.90;;;;;;5022391;28;20041;-77
2022/05/25 12:55:56;;;;;;;20.15;7.07;;;31.90;99.90;;;;;;5021342;28;20500;-77
2022/05/25 12:58:37;;;;;;;13.73;5.85;;;31.90;99.90;;;;;;5022385;28;20132;-77
2022/05/25 13:01:07;;;;;;;19.42;6.85;;;32.10;99.90;;;;;;5017823;28;20045;-77
2022/05/25 13:03:41;;;;;;;15.30;5.35;;;32.20;99.90;;;;;;5017246;28;20385;-77
2022/05/25 13:06:10;;;;;;;21.98;7.07;;;32.10;99.90;;;;;;5021109;28;20065;-77
2022/05/25 13:09:11;;;;;;;23.02;7.13;;;32.20;99.90;;;;;;5020231;28;20141;-78
2022/05/25 13:11:46;;;;;;;20.50;6.90;;;32.40;99.90;;;;;;5020768;28;20050;-77
2022/05/25 13:14:53;;;;;;;19.17;7.30;;;32.50;99.90;;;;;;5019436;28;20120;-76
2022/05/25 13:17:43;;;;;;;19.63;5.53;;;32.90;99.90;;;;;;4957835;29;20415;-77
2022/05/25 13:20:16;;;;;;;15.57;6.45;;;32.90;99.90;;;;;;4957356;29;20138;-78
2022/05/25 13:22:44;;;;;;;14.30;5.68;;;32.90;99.90;;;;;;4999901;28;20058;-77
2022/05/25 13:25:29;;;;;;;17.35;6.45;;;33.00;99.90;;;;;;5019413;28;20503;-76
2022/05/25 13:28:13;;;;;;;;;;;32.90;99.90;;;;;;5023220;28;20497;-78
2022/05/25 13:31:06;;;;;;;15.85;7.13;;;33.10;99.90;;;;;;5019318;28;19921;-77
2022/05/25 13:33:43;;;;;;;16.77;6.63;;;33.40;99.90;;;;;;5016569;28;20054;-78